createdAt,value
2023-04-14T00:00:23.286Z,0.02
2023-04-14T00:01:22.553Z,0.02
2023-04-14T00:02:23.924Z,0.01
2023-04-14T00:03:24.337Z,0.04
2023-04-14T00:05:23.474Z,0.02
2023-04-14T00:06:22.752Z,0.00
2023-04-14T00:07:23.957Z,0.00
2023-04-14T00:08:24.259Z,0.00
2023-04-14T00:10:22.792Z,0.02
2023-04-14T00:11:23.096Z,0.00
2023-04-14T00:12:22.312Z,0.00
2023-04-14T00:13:23.581Z,0.02
2023-04-14T00:14:23.836Z,0.02
2023-04-14T00:15:24.134Z,0.00
2023-04-14T00:16:22.399Z,0.02
2023-04-14T00:17:22.667Z,0.01
2023-04-14T00:18:23.899Z,0.02
2023-04-14T00:19:23.128Z,0.00
2023-04-14T00:20:23.430Z,0.00
2023-04-14T00:21:22.726Z,0.02
2023-04-14T00:22:22.998Z,0.00
2023-04-14T00:23:22.247Z,0.00
2023-04-14T00:25:22.789Z,0.02
2023-04-14T00:26:23.004Z,0.02
2023-04-14T00:27:22.458Z,0.06
2023-04-14T00:28:22.612Z,0.00
2023-04-14T00:29:22.882Z,0.02
2023-04-14T00:30:22.159Z,0.02
2023-04-14T00:31:22.431Z,0.02
2023-04-14T00:32:22.737Z,0.00
2023-04-14T00:33:23.004Z,0.00
2023-04-14T00:34:22.250Z,0.02
2023-04-14T00:35:22.500Z,0.00
2023-04-14T00:36:22.851Z,0.00
2023-04-14T00:37:22.034Z,0.02
2023-04-14T00:38:22.374Z,0.00
2023-04-14T00:39:22.648Z,0.00
2023-04-14T00:40:21.871Z,0.02
2023-04-14T00:41:23.147Z,0.04
2023-04-14T00:42:23.465Z,0.00
2023-04-14T00:43:22.836Z,0.02
2023-04-14T00:44:22.085Z,0.01
2023-04-14T00:45:22.381Z,0.00
2023-04-14T00:46:22.772Z,0.06
2023-04-14T00:47:24.004Z,0.02
2023-04-14T00:48:22.263Z,0.00
2023-04-14T00:49:22.660Z,0.02
2023-04-14T00:50:21.873Z,0.00
2023-04-14T00:51:22.182Z,0.02
2023-04-14T00:52:22.470Z,0.00
2023-04-14T00:53:21.718Z,0.02
2023-04-14T00:54:21.981Z,0.00
2023-04-14T00:55:22.415Z,0.00
2023-04-14T00:56:22.565Z,0.02
2023-04-14T00:57:21.829Z,0.02
2023-04-14T00:58:22.128Z,0.01
2023-04-14T00:59:22.406Z,0.02
2023-04-14T01:00:21.666Z,0.02
2023-04-14T01:01:21.960Z,0.02
2023-04-14T01:02:22.440Z,0.00
2023-04-14T01:03:22.747Z,0.00
2023-04-14T01:04:21.941Z,0.00
2023-04-14T01:05:22.287Z,0.05
2023-04-14T01:06:22.543Z,0.02
2023-04-14T01:07:22.779Z,0.00
2023-04-14T01:08:23.123Z,0.02
2023-04-14T01:09:21.589Z,0.02
2023-04-14T01:10:22.907Z,0.02
2023-04-14T01:11:23.228Z,0.01
2023-04-14T01:12:21.636Z,0.02
2023-04-14T01:13:21.954Z,0.02
2023-04-14T01:14:22.321Z,0.02
2023-04-14T01:15:22.558Z,0.00
2023-04-14T01:16:21.910Z,0.06
2023-04-14T01:17:22.277Z,0.02
2023-04-14T01:18:21.512Z,0.02
2023-04-14T01:19:21.864Z,0.02
2023-04-14T01:20:22.203Z,0.02
2023-04-14T01:21:21.453Z,0.00
2023-04-14T01:22:21.816Z,0.02
2023-04-14T01:23:22.141Z,0.02
2023-04-14T01:24:21.369Z,0.01
2023-04-14T01:25:21.713Z,0.00
2023-04-14T01:26:23.042Z,0.02
2023-04-14T01:27:21.371Z,0.00
2023-04-14T01:28:21.711Z,0.02
2023-04-14T01:29:21.966Z,0.02
2023-04-14T01:30:21.249Z,0.01
2023-04-14T01:31:22.525Z,0.01
2023-04-14T01:32:21.817Z,0.00
2023-04-14T01:33:22.076Z,0.00
2023-04-14T01:34:21.290Z,0.02
2023-04-14T01:35:21.539Z,0.04
2023-04-14T01:36:22.777Z,0.02
2023-04-14T01:37:23.069Z,0.02
2023-04-14T01:38:22.249Z,0.00
2023-04-14T01:39:21.734Z,0.00
2023-04-14T01:40:21.901Z,0.00
2023-04-14T01:41:21.151Z,0.00
2023-04-14T01:42:21.474Z,0.02
2023-04-14T01:43:22.727Z,0.00
2023-04-14T01:44:22.041Z,0.02
2023-04-14T01:45:21.430Z,0.02
2023-04-14T01:46:21.933Z,0.02
2023-04-14T01:47:20.984Z,0.02
2023-04-14T01:48:21.267Z,0.00
2023-04-14T01:49:21.610Z,0.02
2023-04-14T01:50:21.875Z,0.00
2023-04-14T01:51:21.105Z,0.00
2023-04-14T01:52:21.430Z,0.02
2023-04-14T01:53:21.783Z,0.00
2023-04-14T01:54:20.980Z,0.02
2023-04-14T01:55:22.255Z,0.00
2023-04-14T01:56:21.637Z,0.06
2023-04-14T01:57:21.795Z,0.02
2023-04-14T01:58:22.110Z,0.02
2023-04-14T01:59:22.378Z,0.02
2023-04-14T02:00:21.748Z,0.02
2023-04-14T02:01:21.020Z,0.00
2023-04-14T02:02:21.519Z,0.01
2023-04-14T02:03:21.710Z,0.00
2023-04-14T02:04:20.887Z,0.00
2023-04-14T02:05:21.154Z,0.01
2023-04-14T02:06:22.455Z,0.00
2023-04-14T02:07:21.706Z,0.00
2023-04-14T02:08:21.128Z,0.00
2023-04-14T02:09:21.348Z,0.00
2023-04-14T02:10:21.596Z,0.00
2023-04-14T02:11:21.941Z,0.02
2023-04-14T02:12:21.282Z,0.02
2023-04-14T02:13:21.621Z,0.06
2023-04-14T02:14:21.821Z,0.00
2023-04-14T02:15:22.150Z,0.02
2023-04-14T02:16:22.474Z,0.02
2023-04-14T02:17:20.839Z,0.00
2023-04-14T02:18:21.115Z,0.00
2023-04-14T02:19:21.583Z,0.02
2023-04-14T02:20:20.671Z,0.02
2023-04-14T02:21:20.989Z,0.02
2023-04-14T02:22:21.319Z,0.01
2023-04-14T02:23:20.631Z,0.00
2023-04-14T02:24:20.911Z,0.02
2023-04-14T02:25:21.243Z,0.02
2023-04-14T02:26:20.487Z,0.00
2023-04-14T02:27:20.824Z,0.00
2023-04-14T02:28:20.508Z,0.02
2023-04-14T02:29:20.822Z,0.00
2023-04-14T02:30:21.141Z,0.00
2023-04-14T02:31:20.456Z,0.02
2023-04-14T02:32:20.782Z,0.00
2023-04-14T02:33:21.009Z,0.02
2023-04-14T02:34:21.313Z,0.02
2023-04-14T02:35:20.551Z,0.00
2023-04-14T02:36:20.889Z,0.00
2023-04-14T02:37:21.176Z,0.02
2023-04-14T02:38:21.478Z,0.02
2023-04-14T02:39:21.716Z,0.02
2023-04-14T02:40:22.001Z,0.02
2023-04-14T02:41:20.330Z,0.02
2023-04-14T02:42:20.712Z,0.02
2023-04-14T02:43:20.946Z,0.02
2023-04-14T02:44:20.237Z,0.01
2023-04-14T02:45:20.586Z,0.00
2023-04-14T02:46:20.923Z,0.01
2023-04-14T02:47:20.156Z,0.02
2023-04-14T02:48:20.477Z,0.02
2023-04-14T02:49:20.762Z,0.02
2023-04-14T02:50:21.082Z,0.02
2023-04-14T02:51:20.307Z,0.00
2023-04-14T02:52:20.620Z,0.00
2023-04-14T02:53:20.941Z,0.00
2023-04-14T02:54:20.177Z,0.00
2023-04-14T02:55:20.480Z,0.02
2023-04-14T02:56:20.782Z,0.02
2023-04-14T02:57:20.005Z,0.00
2023-04-14T02:58:20.280Z,0.00
2023-04-14T02:59:20.646Z,0.02
2023-04-14T03:00:20.830Z,0.02
2023-04-14T03:01:20.160Z,0.02
2023-04-14T03:02:20.521Z,0.02
2023-04-14T03:03:20.770Z,0.01
2023-04-14T03:04:20.084Z,0.02
2023-04-14T03:05:20.297Z,0.02
2023-04-14T03:06:20.553Z,0.00
2023-04-14T03:08:20.100Z,0.01
2023-04-14T03:09:21.369Z,0.02
2023-04-14T03:10:20.689Z,0.04
2023-04-14T03:11:19.945Z,0.00
2023-04-14T03:12:20.227Z,0.02
2023-04-14T03:13:21.492Z,0.00
2023-04-14T03:14:19.823Z,0.01
2023-04-14T03:15:20.128Z,0.00
2023-04-14T03:16:20.508Z,0.00
2023-04-14T03:17:20.769Z,0.01
2023-04-14T03:18:19.990Z,0.02
2023-04-14T03:19:20.285Z,0.00
2023-04-14T03:20:20.618Z,0.06
2023-04-14T03:21:19.915Z,0.02
2023-04-14T03:22:20.232Z,0.00
2023-04-14T03:23:20.562Z,0.02
2023-04-14T03:24:19.798Z,0.02
2023-04-14T03:25:20.111Z,0.02
2023-04-14T03:26:20.422Z,0.02
2023-04-14T03:27:19.689Z,0.00
2023-04-14T03:28:20.054Z,0.00
2023-04-14T03:29:21.271Z,0.00
2023-04-14T03:30:19.577Z,0.02
2023-04-14T03:31:20.872Z,0.02
2023-04-14T03:32:20.201Z,0.02
2023-04-14T03:33:20.521Z,0.02
2023-04-14T03:34:19.752Z,0.02
2023-04-14T03:35:20.032Z,0.02
2023-04-14T03:36:20.350Z,0.01
2023-04-14T03:37:19.612Z,0.00
2023-04-14T03:38:20.870Z,0.00
2023-04-14T03:39:20.249Z,0.02
2023-04-14T03:40:19.512Z,0.02
2023-04-14T03:41:19.807Z,0.01
2023-04-14T03:42:20.096Z,0.02
2023-04-14T03:43:19.415Z,0.02
2023-04-14T03:44:19.719Z,0.00
2023-04-14T03:45:20.015Z,0.00
2023-04-14T03:46:20.295Z,0.02
2023-04-14T03:47:19.586Z,0.02
2023-04-14T03:48:20.844Z,0.01
2023-04-14T03:49:20.188Z,0.02
2023-04-14T03:50:19.391Z,0.02
2023-04-14T03:51:19.862Z,0.02
2023-04-14T03:52:19.975Z,0.02
2023-04-14T03:53:20.299Z,0.01
2023-04-14T03:54:19.510Z,0.05
2023-04-14T03:55:19.789Z,0.05
2023-04-14T03:56:20.127Z,0.05
2023-04-14T03:57:19.338Z,0.03
2023-04-14T03:58:19.621Z,0.03
2023-04-14T03:59:19.934Z,0.02
2023-04-14T04:00:19.196Z,0.05
2023-04-14T04:01:19.466Z,0.08
2023-04-14T04:02:19.867Z,0.06
2023-04-14T04:03:20.245Z,0.08
2023-04-14T04:04:19.452Z,0.10
2023-04-14T04:05:19.561Z,0.11
2023-04-14T04:06:19.854Z,0.11
2023-04-14T04:07:19.109Z,0.25
2023-04-14T04:08:19.684Z,0.16
2023-04-14T04:09:19.656Z,0.19
2023-04-14T04:10:20.930Z,0.37
2023-04-14T04:11:19.170Z,0.36
2023-04-14T04:12:19.470Z,0.48
2023-04-14T04:13:19.762Z,0.41
2023-04-14T04:14:20.027Z,0.47
2023-04-14T04:15:19.233Z,0.48
2023-04-14T04:16:19.589Z,0.70
2023-04-14T04:17:19.850Z,0.73
2023-04-14T04:18:20.005Z,0.85
2023-04-14T04:19:19.366Z,0.92
2023-04-14T04:20:19.628Z,1.03
2023-04-14T04:21:19.895Z,1.18
2023-04-14T04:22:19.180Z,1.34
2023-04-14T04:23:19.439Z,1.49
2023-04-14T04:24:19.713Z,1.61
2023-04-14T04:25:18.964Z,1.76
2023-04-14T04:26:20.266Z,2.32
2023-04-14T04:27:27.606Z,3.04
2023-04-14T04:28:19.775Z,3.29
2023-04-14T04:29:19.101Z,3.71
2023-04-14T04:30:19.385Z,4.47
2023-04-14T04:31:19.636Z,5.17
2023-04-14T04:32:18.943Z,6.16
2023-04-14T04:33:19.211Z,6.93
2023-04-14T04:34:19.474Z,7.97
2023-04-14T04:35:18.753Z,8.86
2023-04-14T04:36:19.074Z,11.02
2023-04-14T04:37:19.367Z,12.64
2023-04-14T04:38:19.648Z,14.36
2023-04-14T04:39:18.884Z,16.61
2023-04-14T04:40:20.172Z,19.36
2023-04-14T04:41:19.519Z,21.56
2023-04-14T04:42:19.690Z,24.51
2023-04-14T04:43:19.967Z,28.27
2023-04-14T04:44:20.290Z,31.99
2023-04-14T04:45:20.553Z,36.60
2023-04-14T04:46:19.838Z,41.18
2023-04-14T04:47:19.135Z,46.28
2023-04-14T04:48:19.396Z,51.63
2023-04-14T04:49:18.702Z,56.99
2023-04-14T04:50:19.141Z,62.41
2023-04-14T04:51:19.234Z,68.12
2023-04-14T04:52:19.580Z,74.43
2023-04-14T04:53:18.770Z,80.58
2023-04-14T04:54:19.030Z,86.67
2023-04-14T04:55:19.360Z,93.69
2023-04-14T04:56:18.571Z,101.83
2023-04-14T04:57:18.856Z,111.01
2023-04-14T04:58:19.226Z,120.89
2023-04-14T04:59:20.405Z,131.34
2023-04-14T05:00:18.679Z,141.26
2023-04-14T05:01:19.029Z,152.26
2023-04-14T05:02:19.379Z,164.58
2023-04-14T05:03:18.634Z,174.82
2023-04-14T05:04:18.925Z,189.09
2023-04-14T05:05:19.151Z,206.79
2023-04-14T05:06:18.416Z,225.95
2023-04-14T05:07:18.676Z,240.03
2023-04-14T05:08:19.017Z,253.14
2023-04-14T05:09:19.604Z,266.73
2023-04-14T05:10:18.571Z,279.23
2023-04-14T05:11:18.894Z,294.35
2023-04-14T05:12:19.180Z,308.40
2023-04-14T05:13:18.403Z,322.73
2023-04-14T05:14:18.744Z,337.70
2023-04-14T05:15:19.060Z,352.71
2023-04-14T05:16:19.244Z,366.65
2023-04-14T05:17:19.634Z,381.88
2023-04-14T05:18:18.871Z,396.63
2023-04-14T05:19:19.204Z,411.63
2023-04-14T05:20:18.436Z,426.17
2023-04-14T05:21:18.808Z,440.49
2023-04-14T05:22:19.078Z,455.21
2023-04-14T05:23:18.317Z,469.95
2023-04-14T05:24:18.637Z,483.97
2023-04-14T05:25:19.951Z,498.15
2023-04-14T05:27:18.585Z,532.83
2023-04-14T05:28:19.809Z,546.26
2023-04-14T05:29:19.116Z,552.81
2023-04-14T05:30:18.452Z,554.86
2023-04-14T05:31:19.700Z,558.05
2023-04-14T05:32:19.084Z,543.36
2023-04-14T05:33:18.264Z,542.14
2023-04-14T05:34:19.560Z,565.80
2023-04-14T05:35:19.831Z,573.31
2023-04-14T05:36:18.116Z,577.42
2023-04-14T05:37:19.773Z,569.12
2023-04-14T05:38:18.680Z,588.88
2023-04-14T05:39:18.907Z,630.70
2023-04-14T05:40:18.241Z,677.73
2023-04-14T05:41:18.581Z,671.64
2023-04-14T05:42:18.826Z,695.58
2023-04-14T05:43:18.183Z,731.83
2023-04-14T05:44:18.396Z,750.26
2023-04-14T05:45:18.709Z,763.68
2023-04-14T05:46:18.038Z,774.95
2023-04-14T05:47:18.335Z,785.11
2023-04-14T05:48:18.724Z,795.61
2023-04-14T05:49:18.835Z,806.22
2023-04-14T05:50:19.170Z,816.50
2023-04-14T05:51:18.514Z,823.53
2023-04-14T05:52:17.746Z,820.80
2023-04-14T05:53:18.060Z,837.05
2023-04-14T05:54:18.464Z,855.32
2023-04-14T05:55:18.604Z,863.74
2023-04-14T05:56:17.819Z,848.11
2023-04-14T05:57:19.048Z,865.58
2023-04-14T05:58:19.355Z,891.97
2023-04-14T05:59:18.645Z,772.11
2023-04-14T06:00:17.844Z,765.80
2023-04-14T06:01:18.088Z,915.46
2023-04-14T06:02:18.514Z,924.64
2023-04-14T06:03:17.771Z,859.91
2023-04-14T06:04:18.040Z,877.56
2023-04-14T06:05:18.271Z,793.83
2023-04-14T06:06:19.457Z,818.87
2023-04-14T06:07:17.780Z,736.60
2023-04-14T06:08:18.085Z,724.41
2023-04-14T06:09:19.308Z,732.01
2023-04-14T06:10:18.565Z,732.54
2023-04-14T06:11:18.289Z,737.71
2023-04-14T06:12:18.176Z,740.96
2023-04-14T06:13:18.479Z,743.86
2023-04-14T06:14:17.733Z,741.65
2023-04-14T06:15:17.999Z,746.65
2023-04-14T06:16:18.331Z,748.05
2023-04-14T06:17:17.586Z,753.02
2023-04-14T06:18:17.822Z,755.60
2023-04-14T06:19:18.117Z,759.47
2023-04-14T06:20:17.385Z,752.97
2023-04-14T06:21:17.698Z,756.89
2023-04-14T06:22:18.046Z,759.99
2023-04-14T06:23:18.265Z,757.36
2023-04-14T06:24:17.578Z,760.66
2023-04-14T06:25:17.811Z,762.61
2023-04-14T06:26:18.123Z,767.45
2023-04-14T06:27:18.359Z,770.98
2023-04-14T06:28:17.739Z,775.36
2023-04-14T06:29:18.955Z,773.37
2023-04-14T06:30:18.198Z,773.58
2023-04-14T06:31:18.532Z,775.63
2023-04-14T06:32:17.914Z,778.14
2023-04-14T06:33:18.142Z,780.99
2023-04-14T06:34:17.407Z,781.33
2023-04-14T06:35:31.895Z,783.61
2023-04-14T06:36:18.940Z,781.87
2023-04-14T06:37:17.263Z,785.05
2023-04-14T06:38:17.503Z,781.91
2023-04-14T06:39:17.815Z,782.95
2023-04-14T06:40:19.074Z,784.49
2023-04-14T06:41:18.292Z,784.88
2023-04-14T06:42:17.619Z,782.28
2023-04-14T06:43:17.926Z,778.74
2023-04-14T06:44:17.141Z,782.05
2023-04-14T06:45:17.477Z,776.52
2023-04-14T06:46:17.754Z,777.09
2023-04-14T06:47:18.012Z,776.23
2023-04-14T06:48:17.272Z,774.25
2023-04-14T06:49:17.639Z,773.13
2023-04-14T06:50:17.882Z,770.07
2023-04-14T06:51:18.200Z,764.96
2023-04-14T06:52:17.362Z,762.59
2023-04-14T06:53:17.649Z,760.57
2023-04-14T06:54:17.940Z,761.11
2023-04-14T06:55:17.196Z,756.23
2023-04-14T06:56:17.479Z,752.21
2023-04-14T06:57:17.788Z,749.21
2023-04-14T06:58:18.021Z,748.67
2023-04-14T06:59:17.348Z,744.38
2023-04-14T07:00:17.977Z,740.50
2023-04-14T07:01:17.856Z,737.30
2023-04-14T07:02:18.172Z,735.43
2023-04-14T07:03:17.433Z,731.49
2023-04-14T07:04:18.696Z,728.78
2023-04-14T07:05:17.918Z,727.80
2023-04-14T07:06:17.383Z,731.96
2023-04-14T07:07:18.410Z,734.55
2023-04-14T07:08:17.792Z,738.07
2023-04-14T07:09:16.985Z,741.10
2023-04-14T07:10:17.280Z,744.26
2023-04-14T07:11:17.578Z,747.01
2023-04-14T07:12:16.788Z,749.87
2023-04-14T07:13:18.016Z,753.04
2023-04-14T07:14:18.306Z,755.32
2023-04-14T07:15:18.538Z,758.05
2023-04-14T07:16:16.912Z,759.55
2023-04-14T07:17:17.124Z,762.54
2023-04-14T07:18:17.356Z,764.11
2023-04-14T07:19:17.680Z,767.43
2023-04-14T07:20:16.880Z,770.08
2023-04-14T07:21:17.186Z,771.38
2023-04-14T07:22:17.540Z,774.18
2023-04-14T07:23:16.674Z,776.72
2023-04-14T07:24:16.962Z,779.49
2023-04-14T07:25:17.233Z,782.40
2023-04-14T07:26:17.486Z,785.29
2023-04-14T07:27:16.704Z,787.51
2023-04-14T07:28:17.041Z,790.34
2023-04-14T07:29:18.227Z,792.08
2023-04-14T07:30:18.494Z,794.94
2023-04-14T07:31:16.782Z,797.41
2023-04-14T07:32:17.935Z,800.43
2023-04-14T07:33:19.380Z,802.71
2023-04-14T07:34:17.449Z,806.03
2023-04-14T07:35:17.703Z,808.59
2023-04-14T07:36:18.054Z,810.31
2023-04-14T07:37:18.288Z,812.68
2023-04-14T07:38:16.534Z,815.63
2023-04-14T07:39:16.868Z,817.36
2023-04-14T07:40:17.055Z,819.62
2023-04-14T07:41:16.289Z,823.45
2023-04-14T07:42:16.555Z,825.81
2023-04-14T07:43:16.814Z,828.22
2023-04-14T07:44:17.109Z,830.34
2023-04-14T07:45:17.337Z,833.19
2023-04-14T07:46:17.582Z,835.94
2023-04-14T07:47:17.828Z,838.18
2023-04-14T07:48:18.225Z,840.22
2023-04-14T07:49:16.306Z,842.50
2023-04-14T07:50:19.133Z,845.04
2023-04-14T07:51:16.889Z,847.93
2023-04-14T07:52:17.086Z,850.01
2023-04-14T07:53:16.316Z,852.41
2023-04-14T07:54:16.575Z,854.92
2023-04-14T07:55:16.853Z,857.66
2023-04-14T07:56:17.149Z,860.70
2023-04-14T07:57:16.322Z,862.56
2023-04-14T07:58:16.559Z,865.04
2023-04-14T07:59:16.834Z,867.30
2023-04-14T08:00:16.027Z,870.32
2023-04-14T08:01:16.452Z,873.52
2023-04-14T08:02:16.646Z,876.62
2023-04-14T08:03:16.838Z,879.61
2023-04-14T08:04:16.087Z,882.53
2023-04-14T08:05:16.271Z,885.14
2023-04-14T08:06:16.481Z,888.50
2023-04-14T08:07:16.775Z,892.37
2023-04-14T08:08:15.970Z,895.48
2023-04-14T08:09:16.156Z,897.86
2023-04-14T08:10:16.384Z,900.41
2023-04-14T08:11:16.628Z,904.83
2023-04-14T08:12:16.864Z,908.87
2023-04-14T08:13:16.052Z,911.31
2023-04-14T08:14:17.220Z,914.96
2023-04-14T08:15:17.434Z,917.51
2023-04-14T08:16:17.723Z,921.23
2023-04-14T08:17:16.856Z,924.85
2023-04-14T08:18:16.209Z,927.65
2023-04-14T08:19:16.406Z,930.56
2023-04-14T08:20:16.647Z,935.37
2023-04-14T08:21:16.831Z,939.19
2023-04-14T08:22:16.076Z,942.79
2023-04-14T08:23:16.386Z,946.79
2023-04-14T08:24:17.523Z,949.58
2023-04-14T08:25:15.762Z,954.39
2023-04-14T08:26:15.999Z,957.65
2023-04-14T08:27:16.204Z,961.62
2023-04-14T08:28:16.463Z,964.42
2023-04-14T08:29:16.687Z,966.32
2023-04-14T08:30:15.864Z,969.44
2023-04-14T08:31:16.104Z,973.65
2023-04-14T08:32:16.282Z,978.30
2023-04-14T08:33:16.613Z,981.31
2023-04-14T08:34:21.257Z,983.07
2023-04-14T08:35:38.166Z,987.90
2023-04-14T08:36:18.068Z,993.40
2023-04-14T08:37:16.335Z,998.57
2023-04-14T08:38:16.575Z,1001.69
2023-04-14T08:39:15.782Z,1004.07
2023-04-14T08:40:16.011Z,1008.24
2023-04-14T08:41:16.265Z,1014.46
2023-04-14T08:42:16.456Z,1018.97
2023-04-14T08:43:15.636Z,1024.32
2023-04-14T08:44:15.861Z,1030.51
2023-04-14T08:45:16.127Z,1032.94
2023-04-14T08:46:16.482Z,1037.74
2023-04-14T08:47:15.485Z,1042.48
2023-04-14T08:48:15.654Z,1044.39
2023-04-14T08:49:15.880Z,1048.40
2023-04-14T08:50:17.052Z,1053.45
2023-04-14T08:51:16.269Z,1056.40
2023-04-14T08:52:17.488Z,1058.58
2023-04-14T08:53:16.615Z,1064.68
2023-04-14T08:54:16.910Z,1068.77
2023-04-14T08:55:17.045Z,1073.28
2023-04-14T08:56:16.345Z,1077.51
2023-04-14T08:57:15.508Z,1082.86
2023-04-14T08:58:16.690Z,1090.65
2023-04-14T08:59:16.002Z,1094.33
2023-04-14T09:00:16.150Z,1098.95
2023-04-14T09:01:15.345Z,1102.98
2023-04-14T09:02:16.159Z,1110.31
2023-04-14T09:03:15.988Z,1115.50
2023-04-14T09:04:16.144Z,1120.33
2023-04-14T09:05:17.120Z,1124.53
2023-04-14T09:06:15.326Z,1129.24
2023-04-14T09:07:15.528Z,1134.09
2023-04-14T09:08:15.811Z,1136.49
2023-04-14T09:09:16.916Z,1139.92
2023-04-14T09:10:16.077Z,1143.32
2023-04-14T09:11:15.328Z,1147.66
2023-04-14T09:12:15.520Z,1152.55
2023-04-14T09:13:16.775Z,1159.42
2023-04-14T09:14:15.971Z,1166.68
2023-04-14T09:15:15.125Z,1171.85
2023-04-14T09:16:15.404Z,1174.25
2023-04-14T09:17:15.620Z,1179.74
2023-04-14T09:18:16.776Z,1192.91
2023-04-14T09:19:15.985Z,1206.37
2023-04-14T09:20:34.889Z,1211.68
2023-04-14T09:21:31.145Z,1211.52
2023-04-14T09:22:16.555Z,1209.77
2023-04-14T09:23:15.726Z,1209.83
2023-04-14T09:24:16.012Z,1212.48
2023-04-14T09:25:15.151Z,1214.90
2023-04-14T09:26:15.307Z,1221.39
2023-04-14T09:27:15.509Z,1228.78
2023-04-14T09:28:15.686Z,1234.02
2023-04-14T09:29:14.921Z,1236.96
2023-04-14T09:30:15.071Z,1243.55
2023-04-14T09:31:15.308Z,1254.25
2023-04-14T09:32:15.456Z,1270.78
2023-04-14T09:33:15.687Z,1269.74
2023-04-14T09:34:14.798Z,1264.01
2023-04-14T09:35:14.965Z,1267.43
2023-04-14T09:36:16.100Z,1274.68
2023-04-14T09:37:15.390Z,1278.36
2023-04-14T09:38:15.549Z,1280.82
2023-04-14T09:39:15.676Z,1285.95
2023-04-14T09:40:14.906Z,1304.17
2023-04-14T09:41:16.004Z,1307.21
2023-04-14T09:42:16.183Z,1301.70
2023-04-14T09:43:15.475Z,1304.41
2023-04-14T09:44:15.630Z,1313.67
2023-04-14T09:45:15.704Z,1318.11
2023-04-14T09:46:15.939Z,1332.66
2023-04-14T09:47:15.128Z,1010.04
2023-04-14T09:48:15.378Z,908.77
2023-04-14T09:49:15.540Z,1347.29
2023-04-14T09:50:14.643Z,1342.15
2023-04-14T09:51:15.794Z,1343.71
2023-04-14T09:52:15.965Z,1349.77
2023-04-14T09:53:16.187Z,1378.42
2023-04-14T09:54:15.428Z,1397.03
2023-04-14T09:55:14.638Z,1411.07
2023-04-14T09:56:14.821Z,1397.52
2023-04-14T09:57:14.987Z,1353.87
2023-04-14T09:58:15.196Z,1401.11
2023-04-14T09:59:15.415Z,1340.32
2023-04-14T10:00:14.471Z,1334.63
2023-04-14T10:01:14.981Z,1286.44
2023-04-14T10:02:15.968Z,1255.12
2023-04-14T10:03:15.151Z,1346.47
2023-04-14T10:04:16.167Z,1358.73
2023-04-14T10:05:15.494Z,1055.79
2023-04-14T10:06:15.489Z,953.37
2023-04-14T10:07:14.838Z,1095.71
2023-04-14T10:08:14.926Z,1421.26
2023-04-14T10:09:15.133Z,1413.90
2023-04-14T10:10:14.287Z,1401.59
2023-04-14T10:11:14.508Z,1395.38
2023-04-14T10:12:14.693Z,1398.30
2023-04-14T10:13:14.888Z,1359.07
2023-04-14T10:14:15.020Z,1368.70
2023-04-14T10:15:16.181Z,1383.34
2023-04-14T10:16:15.345Z,1388.85
2023-04-14T10:17:15.520Z,1247.23
2023-04-14T10:18:15.816Z,885.80
2023-04-14T10:19:15.019Z,1336.87
2023-04-14T10:20:15.144Z,1431.57
2023-04-14T10:21:14.371Z,1353.04
2023-04-14T10:22:14.497Z,1425.40
2023-04-14T10:23:14.689Z,1432.12
2023-04-14T10:24:14.910Z,1425.48
2023-04-14T10:25:16.939Z,1430.34
2023-04-14T10:26:14.230Z,1395.81
2023-04-14T10:27:14.429Z,1403.38
2023-04-14T10:28:14.613Z,1405.87
2023-04-14T10:29:14.796Z,863.32
2023-04-14T10:30:14.983Z,1041.07
2023-04-14T10:31:14.190Z,1466.31
2023-04-14T10:32:15.289Z,1470.40
2023-04-14T10:33:14.480Z,1460.31
2023-04-14T10:34:14.678Z,1470.53
2023-04-14T10:35:15.782Z,1394.63
2023-04-14T10:36:15.012Z,945.22
2023-04-14T10:37:15.155Z,771.47
2023-04-14T10:38:15.276Z,795.87
2023-04-14T10:39:14.500Z,997.86
2023-04-14T10:40:14.685Z,1419.22
2023-04-14T10:41:14.846Z,1393.03
2023-04-14T10:42:14.042Z,1124.86
2023-04-14T10:43:14.219Z,1055.55
2023-04-14T10:44:14.400Z,1533.97
2023-04-14T10:45:14.567Z,1533.42
2023-04-14T10:46:15.757Z,1533.84
2023-04-14T10:47:13.981Z,1528.75
2023-04-14T10:48:14.149Z,1527.63
2023-04-14T10:49:15.202Z,1514.21
2023-04-14T10:50:14.479Z,1501.93
2023-04-14T10:51:15.599Z,1489.53
2023-04-14T10:52:14.692Z,1485.33
2023-04-14T10:53:13.925Z,1487.51
2023-04-14T10:54:14.144Z,1496.96
2023-04-14T10:55:14.240Z,1526.24
2023-04-14T10:56:14.426Z,1511.24
2023-04-14T10:57:14.584Z,1064.01
2023-04-14T10:58:13.714Z,1122.67
2023-04-14T10:59:14.869Z,1534.50
2023-04-14T11:00:14.140Z,1267.05
2023-04-14T11:01:14.244Z,1476.30
2023-04-14T11:02:15.444Z,1528.07
2023-04-14T11:03:14.840Z,1532.46
2023-04-14T11:04:13.843Z,1543.27
2023-04-14T11:05:13.938Z,1525.97
2023-04-14T11:06:14.190Z,1536.59
2023-04-14T11:07:14.735Z,1538.46
2023-04-14T11:08:14.484Z,1525.90
2023-04-14T11:09:13.622Z,1513.66
2023-04-14T11:10:13.936Z,1552.92
2023-04-14T11:11:13.972Z,1550.90
2023-04-14T11:12:14.265Z,1581.72
2023-04-14T11:13:16.035Z,1585.04
2023-04-14T11:14:14.399Z,1554.06
2023-04-14T11:15:14.662Z,1459.10
2023-04-14T11:16:13.883Z,1582.16
2023-04-14T11:17:14.145Z,1565.08
2023-04-14T11:18:14.516Z,1570.80
2023-04-14T11:19:13.427Z,1563.57
2023-04-14T11:20:14.584Z,1561.67
2023-04-14T11:21:14.859Z,1567.51
2023-04-14T11:22:14.992Z,1576.21
2023-04-14T11:23:15.232Z,983.72
2023-04-14T11:24:13.443Z,1044.17
2023-04-14T11:25:14.723Z,886.61
2023-04-14T11:26:14.784Z,1620.99
2023-04-14T11:27:15.024Z,1614.00
2023-04-14T11:28:15.175Z,1622.13
2023-04-14T11:29:13.375Z,1552.83
2023-04-14T11:30:13.602Z,1001.02
2023-04-14T11:31:13.717Z,1440.26
2023-04-14T11:32:13.950Z,1606.37
2023-04-14T11:33:14.089Z,1586.77
2023-04-14T11:34:13.169Z,1588.27
2023-04-14T11:35:13.356Z,1601.30
2023-04-14T11:36:13.577Z,1603.35
2023-04-14T11:37:14.649Z,1636.69
2023-04-14T11:38:14.834Z,1656.75
2023-04-14T11:39:15.032Z,1665.48
2023-04-14T11:40:14.197Z,1665.00
2023-04-14T11:41:14.343Z,1658.65
2023-04-14T11:42:13.609Z,1657.14
2023-04-14T11:43:13.732Z,1656.78
2023-04-14T11:44:13.914Z,1657.63
2023-04-14T11:45:13.067Z,1658.23
2023-04-14T11:46:13.323Z,1659.97
2023-04-14T11:47:13.382Z,1669.43
2023-04-14T11:48:14.546Z,1679.62
2023-04-14T11:49:14.679Z,1677.98
2023-04-14T11:50:14.816Z,1675.34
2023-04-14T11:51:13.960Z,1665.52
2023-04-14T11:52:14.097Z,1664.86
2023-04-14T11:53:14.236Z,1657.98
2023-04-14T11:54:13.586Z,1642.80
2023-04-14T11:55:13.668Z,1612.12
2023-04-14T11:56:13.789Z,1636.18
2023-04-14T11:57:12.907Z,1623.81
2023-04-14T11:58:13.091Z,1312.56
2023-04-14T11:59:13.197Z,1563.01
2023-04-14T12:00:14.385Z,1550.33
2023-04-14T12:01:14.530Z,1585.41
2023-04-14T12:02:13.815Z,1568.12
2023-04-14T12:03:13.085Z,1572.74
2023-04-14T12:04:13.111Z,1522.52
2023-04-14T12:05:13.419Z,1237.26
2023-04-14T12:06:14.346Z,1223.85
2023-04-14T12:07:14.487Z,1222.41
2023-04-14T12:08:13.673Z,1108.04
2023-04-14T12:09:13.829Z,1052.25
2023-04-14T12:10:13.997Z,1436.90
2023-04-14T12:11:13.307Z,1398.22
2023-04-14T12:12:13.385Z,1418.38
2023-04-14T12:13:14.479Z,1370.31
2023-04-14T12:14:13.638Z,1449.13
2023-04-14T12:15:13.802Z,1416.88
2023-04-14T12:16:13.296Z,1416.79
2023-04-14T12:17:13.203Z,1376.65
2023-04-14T12:18:13.506Z,1476.55
2023-04-14T12:19:14.417Z,1508.36
2023-04-14T12:20:14.631Z,1544.15
2023-04-14T12:21:13.653Z,1575.73
2023-04-14T12:22:13.797Z,1580.90
2023-04-14T12:23:14.027Z,1576.65
2023-04-14T12:24:14.141Z,1571.39
2023-04-14T12:25:14.226Z,1574.95
2023-04-14T12:26:14.410Z,1576.15
2023-04-14T12:27:12.545Z,1572.70
2023-04-14T12:28:12.694Z,1627.84
2023-04-14T12:29:13.824Z,1633.84
2023-04-14T12:30:14.085Z,1633.78
2023-04-14T12:31:14.109Z,1632.78
2023-04-14T12:32:14.272Z,1645.15
2023-04-14T12:33:14.374Z,1632.68
2023-04-14T12:34:13.531Z,1638.06
2023-04-14T12:35:13.688Z,1608.92
2023-04-14T12:36:13.936Z,1574.36
2023-04-14T12:37:13.985Z,1545.35
2023-04-14T12:38:13.168Z,1511.57
2023-04-14T12:39:13.334Z,1470.94
2023-04-14T12:40:12.563Z,1439.49
2023-04-14T12:41:13.607Z,1458.82
2023-04-14T12:42:13.739Z,1456.76
2023-04-14T12:43:13.894Z,1438.29